sensor_id;sensor_type;location;lat;lon;timestamp;pressure;altitude;pressure_sealevel;temperature;humidity
8075;BME280;4080;42.676;23.372;2023-05-21T00:01:33;94989.59;;;14.58;100.00
8075;BME280;4080;42.676;23.372;2023-05-21T00:04:00;94985.09;;;14.58;100.00
8075;BME280;4080;42.676;23.372;2023-05-21T00:06:27;94985.88;;;14.59;100.00
8075;BME280;4080;42.676;23.372;2023-05-21T00:08:54;94984.19;;;14.63;100.00
8075;BME280;4080;42.676;23.372;2023-05-21T00:11:21;94983.91;;;14.65;100.00
8075;BME280;4080;42.676;23.372;2023-05-21T00:13:49;94978.59;;;14.65;100.00
8075;BME280;4080;42.676;23.372;2023-05-21T00:16:16;94975.94;;;14.65;100.00
8075;BME280;4080;42.676;23.372;2023-05-21T00:18:43;94932.56;;;14.42;100.00
8075;BME280;4080;42.676;23.372;2023-05-21T00:21:10;94928.69;;;14.34;100.00
8075;BME280;4080;42.676;23.372;2023-05-21T00:23:38;94970.72;;;14.59;100.00
8075;BME280;4080;42.676;23.372;2023-05-21T00:26:07;94970.16;;;14.63;100.00
8075;BME280;4080;42.676;23.372;2023-05-21T00:28:33;94962.66;;;14.65;100.00
8075;BME280;4080;42.676;23.372;2023-05-21T00:31:01;94967.19;;;14.64;100.00
8075;BME280;4080;42.676;23.372;2023-05-21T00:33:28;94964.63;;;14.59;100.00
8075;BME280;4080;42.676;23.372;2023-05-21T00:35:55;94969.66;;;14.60;100.00
8075;BME280;4080;42.676;23.372;2023-05-21T00:38:22;94960.59;;;14.62;100.00
8075;BME280;4080;42.676;23.372;2023-05-21T00:40:52;94959.53;;;14.63;100.00
8075;BME280;4080;42.676;23.372;2023-05-21T00:43:19;94956.88;;;14.63;100.00
8075;BME280;4080;42.676;23.372;2023-05-21T00:45:50;94952.66;;;14.62;100.00
8075;BME280;4080;42.676;23.372;2023-05-21T00:48:19;94953.72;;;14.60;100.00
8075;BME280;4080;42.676;23.372;2023-05-21T00:50:46;94949.59;;;14.54;100.00
8075;BME280;4080;42.676;23.372;2023-05-21T00:53:14;94956.09;;;14.48;100.00
8075;BME280;4080;42.676;23.372;2023-05-21T00:55:43;94957.75;;;14.44;100.00
8075;BME280;4080;42.676;23.372;2023-05-21T00:58:10;94953.00;;;14.41;100.00
8075;BME280;4080;42.676;23.372;2023-05-21T01:00:37;94934.47;;;14.22;100.00
8075;BME280;4080;42.676;23.372;2023-05-21T01:03:04;94945.50;;;14.29;100.00
8075;BME280;4080;42.676;23.372;2023-05-21T01:05:33;94955.50;;;14.33;100.00
8075;BME280;4080;42.676;23.372;2023-05-21T01:08:00;94954.94;;;14.36;100.00
8075;BME280;4080;42.676;23.372;2023-05-21T01:10:27;94955.94;;;14.40;100.00
8075;BME280;4080;42.676;23.372;2023-05-21T01:12:56;94953.53;;;14.43;100.00
8075;BME280;4080;42.676;23.372;2023-05-21T01:15:24;94955.59;;;14.46;100.00
8075;BME280;4080;42.676;23.372;2023-05-21T01:17:51;94934.50;;;14.36;100.00
8075;BME280;4080;42.676;23.372;2023-05-21T01:20:22;94890.50;;;14.03;100.00
8075;BME280;4080;42.676;23.372;2023-05-21T01:22:52;94939.25;;;14.39;100.00
8075;BME280;4080;42.676;23.372;2023-05-21T01:25:19;94937.44;;;14.35;100.00
8075;BME280;4080;42.676;23.372;2023-05-21T01:27:45;94943.16;;;14.42;100.00
8075;BME280;4080;42.676;23.372;2023-05-21T01:30:12;94927.59;;;14.35;100.00
8075;BME280;4080;42.676;23.372;2023-05-21T01:32:46;94937.31;;;14.45;100.00
8075;BME280;4080;42.676;23.372;2023-05-21T01:35:18;94936.53;;;14.44;100.00
8075;BME280;4080;42.676;23.372;2023-05-21T01:37:52;94931.63;;;14.33;100.00
8075;BME280;4080;42.676;23.372;2023-05-21T01:40:25;94924.66;;;14.23;100.00
8075;BME280;4080;42.676;23.372;2023-05-21T01:42:56;94923.56;;;14.24;100.00
8075;BME280;4080;42.676;23.372;2023-05-21T01:45:24;94930.44;;;14.25;100.00
8075;BME280;4080;42.676;23.372;2023-05-21T01:47:54;94930.16;;;14.26;100.00
8075;BME280;4080;42.676;23.372;2023-05-21T01:50:22;94933.31;;;14.28;100.00
8075;BME280;4080;42.676;23.372;2023-05-21T01:52:53;94929.38;;;14.26;100.00
8075;BME280;4080;42.676;23.372;2023-05-21T01:55:21;94933.69;;;14.22;100.00
8075;BME280;4080;42.676;23.372;2023-05-21T01:57:50;94930.72;;;14.10;100.00
8075;BME280;4080;42.676;23.372;2023-05-21T02:00:18;94924.19;;;14.02;100.00
8075;BME280;4080;42.676;23.372;2023-05-21T02:02:45;94919.28;;;13.95;100.00
8075;BME280;4080;42.676;23.372;2023-05-21T02:05:12;94923.69;;;13.86;100.00
8075;BME280;4080;42.676;23.372;2023-05-21T02:07:39;94927.53;;;13.94;100.00
8075;BME280;4080;42.676;23.372;2023-05-21T02:10:07;94889.34;;;13.76;100.00
8075;BME280;4080;42.676;23.372;2023-05-21T02:12:34;94921.72;;;13.92;100.00
8075;BME280;4080;42.676;23.372;2023-05-21T02:15:02;94925.25;;;13.87;100.00
8075;BME280;4080;42.676;23.372;2023-05-21T02:17:30;94925.75;;;13.89;100.00
8075;BME280;4080;42.676;23.372;2023-05-21T02:19:58;94920.44;;;13.89;100.00
8075;BME280;4080;42.676;23.372;2023-05-21T02:22:32;94917.59;;;13.86;100.00
8075;BME280;4080;42.676;23.372;2023-05-21T02:24:59;94926.81;;;13.88;100.00
8075;BME280;4080;42.676;23.372;2023-05-21T02:27:27;94915.81;;;13.81;100.00
8075;BME280;4080;42.676;23.372;2023-05-21T02:29:56;94924.84;;;13.80;100.00
8075;BME280;4080;42.676;23.372;2023-05-21T02:32:22;94916.94;;;13.75;100.00
8075;BME280;4080;42.676;23.372;2023-05-21T02:34:49;94872.81;;;13.52;100.00
8075;BME280;4080;42.676;23.372;2023-05-21T02:37:17;94893.41;;;13.55;100.00
8075;BME280;4080;42.676;23.372;2023-05-21T02:39:44;94920.09;;;13.77;100.00
8075;BME280;4080;42.676;23.372;2023-05-21T02:42:11;94918.47;;;13.81;100.00
8075;BME280;4080;42.676;23.372;2023-05-21T02:44:39;94909.94;;;13.84;100.00
8075;BME280;4080;42.676;23.372;2023-05-21T02:47:06;94895.03;;;13.70;100.00
8075;BME280;4080;42.676;23.372;2023-05-21T02:49:34;94905.84;;;13.73;100.00
8075;BME280;4080;42.676;23.372;2023-05-21T02:52:01;94906.34;;;13.75;100.00
8075;BME280;4080;42.676;23.372;2023-05-21T02:54:27;94916.88;;;13.80;100.00
8075;BME280;4080;42.676;23.372;2023-05-21T02:56:54;94909.56;;;13.72;100.00
8075;BME280;4080;42.676;23.372;2023-05-21T02:59:21;94903.16;;;13.59;100.00
8075;BME280;4080;42.676;23.372;2023-05-21T03:01:50;94891.41;;;13.47;100.00
8075;BME280;4080;42.676;23.372;2023-05-21T03:04:16;94905.47;;;13.47;100.00
8075;BME280;4080;42.676;23.372;2023-05-21T03:06:46;94913.13;;;13.49;100.00
8075;BME280;4080;42.676;23.372;2023-05-21T03:09:12;94870.03;;;13.24;100.00
8075;BME280;4080;42.676;23.372;2023-05-21T03:11:39;94909.81;;;13.57;100.00
8075;BME280;4080;42.676;23.372;2023-05-21T03:14:06;94909.75;;;13.62;100.00
8075;BME280;4080;42.676;23.372;2023-05-21T03:16:34;94898.34;;;13.61;100.00
8075;BME280;4080;42.676;23.372;2023-05-21T03:19:02;94907.91;;;13.76;100.00
8075;BME280;4080;42.676;23.372;2023-05-21T03:21:29;94909.44;;;13.82;100.00
8075;BME280;4080;42.676;23.372;2023-05-21T03:23:56;94909.63;;;13.86;100.00
8075;BME280;4080;42.676;23.372;2023-05-21T03:26:23;94917.78;;;13.89;100.00
8075;BME280;4080;42.676;23.372;2023-05-21T03:28:51;94912.41;;;13.94;100.00
8075;BME280;4080;42.676;23.372;2023-05-21T03:31:18;94917.13;;;13.97;100.00
8075;BME280;4080;42.676;23.372;2023-05-21T03:33:45;94915.16;;;14.03;100.00
8075;BME280;4080;42.676;23.372;2023-05-21T03:36:13;94930.38;;;13.97;100.00
8075;BME280;4080;42.676;23.372;2023-05-21T03:38:39;94920.66;;;13.93;100.00
8075;BME280;4080;42.676;23.372;2023-05-21T03:41:07;94924.19;;;13.88;100.00
8075;BME280;4080;42.676;23.372;2023-05-21T03:43:34;94920.94;;;13.91;100.00
8075;BME280;4080;42.676;23.372;2023-05-21T03:46:01;94914.66;;;13.87;100.00
8075;BME280;4080;42.676;23.372;2023-05-21T03:48:27;94923.00;;;13.94;100.00
8075;BME280;4080;42.676;23.372;2023-05-21T03:50:54;94920.34;;;13.94;100.00
8075;BME280;4080;42.676;23.372;2023-05-21T03:53:23;94920.94;;;13.91;100.00
8075;BME280;4080;42.676;23.372;2023-05-21T03:55:50;94917.69;;;13.94;100.00
8075;BME280;4080;42.676;23.372;2023-05-21T03:58:19;94913.78;;;13.92;100.00
8075;BME280;4080;42.676;23.372;2023-05-21T04:00:46;94905.03;;;13.91;100.00
8075;BME280;4080;42.676;23.372;2023-05-21T04:03:12;94896.50;;;13.94;100.00
8075;BME280;4080;42.676;23.372;2023-05-21T04:05:40;94917.03;;;14.03;100.00
8075;BME280;4080;42.676;23.372;2023-05-21T04:08:07;94909.28;;;14.06;100.00
8075;BME280;4080;42.676;23.372;2023-05-21T04:10:36;94903.19;;;14.06;100.00
8075;BME280;4080;42.676;23.372;2023-05-21T04:13:02;94914.53;;;14.25;100.00
8075;BME280;4080;42.676;23.372;2023-05-21T04:15:29;94916.00;;;14.31;100.00
8075;BME280;4080;42.676;23.372;2023-05-21T04:17:56;94924.09;;;14.40;100.00
8075;BME280;4080;42.676;23.372;2023-05-21T04:20:24;94914.50;;;14.44;100.00
8075;BME280;4080;42.676;23.372;2023-05-21T04:22:51;94913.19;;;14.41;100.00
8075;BME280;4080;42.676;23.372;2023-05-21T04:25:18;94915.28;;;14.44;100.00
8075;BME280;4080;42.676;23.372;2023-05-21T04:27:48;94923.34;;;14.53;100.00
8075;BME280;4080;42.676;23.372;2023-05-21T04:30:15;94922.94;;;14.59;100.00
8075;BME280;4080;42.676;23.372;2023-05-21T04:32:44;94919.59;;;14.68;100.00
8075;BME280;4080;42.676;23.372;2023-05-21T04:35:12;94920.03;;;14.75;100.00
8075;BME280;4080;42.676;23.372;2023-05-21T04:37:40;94913.53;;;14.81;100.00
8075;BME280;4080;42.676;23.372;2023-05-21T04:40:10;94918.44;;;14.87;100.00
8075;BME280;4080;42.676;23.372;2023-05-21T04:42:42;94921.94;;;14.97;100.00
8075;BME280;4080;42.676;23.372;2023-05-21T04:45:11;94922.06;;;15.05;100.00
8075;BME280;4080;42.676;23.372;2023-05-21T04:47:38;94920.38;;;15.09;100.00
8075;BME280;4080;42.676;23.372;2023-05-21T04:50:06;94927.66;;;15.17;100.00
8075;BME280;4080;42.676;23.372;2023-05-21T04:52:32;94917.78;;;15.32;100.00
8075;BME280;4080;42.676;23.372;2023-05-21T04:55:00;94926.19;;;15.47;100.00
8075;BME280;4080;42.676;23.372;2023-05-21T04:57:27;94928.56;;;15.63;100.00
8075;BME280;4080;42.676;23.372;2023-05-21T04:59:54;94923.19;;;15.76;100.00
8075;BME280;4080;42.676;23.372;2023-05-21T05:02:23;94915.88;;;15.82;100.00
8075;BME280;4080;42.676;23.372;2023-05-21T05:04:50;94921.63;;;15.98;100.00
8075;BME280;4080;42.676;23.372;2023-05-21T05:07:17;94929.50;;;16.11;100.00
8075;BME280;4080;42.676;23.372;2023-05-21T05:09:43;94929.25;;;16.22;100.00
8075;BME280;4080;42.676;23.372;2023-05-21T05:12:10;94930.28;;;16.34;100.00
8075;BME280;4080;42.676;23.372;2023-05-21T05:14:37;94903.44;;;16.22;100.00
8075;BME280;4080;42.676;23.372;2023-05-21T05:17:04;94906.47;;;16.29;100.00
8075;BME280;4080;42.676;23.372;2023-05-21T05:19:33;94902.47;;;16.18;100.00
8075;BME280;4080;42.676;23.372;2023-05-21T05:22:00;94947.06;;;16.43;100.00
8075;BME280;4080;42.676;23.372;2023-05-21T05:24:27;94937.38;;;16.48;100.00
8075;BME280;4080;42.676;23.372;2023-05-21T05:26:54;94936.19;;;16.54;100.00
8075;BME280;4080;42.676;23.372;2023-05-21T05:29:21;94934.34;;;16.63;100.00
8075;BME280;4080;42.676;23.372;2023-05-21T05:31:47;94929.38;;;16.70;100.00
8075;BME280;4080;42.676;23.372;2023-05-21T05:34:14;94933.22;;;16.86;100.00
8075;BME280;4080;42.676;23.372;2023-05-21T05:36:42;94939.19;;;17.00;100.00
8075;BME280;4080;42.676;23.372;2023-05-21T05:39:09;94897.78;;;16.86;100.00
8075;BME280;4080;42.676;23.372;2023-05-21T05:41:36;94934.38;;;17.20;100.00
8075;BME280;4080;42.676;23.372;2023-05-21T05:44:03;94936.59;;;17.35;100.00
8075;BME280;4080;42.676;23.372;2023-05-21T05:46:30;94935.97;;;17.38;100.00
8075;BME280;4080;42.676;23.372;2023-05-21T05:48:56;94928.00;;;17.47;100.00
8075;BME280;4080;42.676;23.372;2023-05-21T05:51:23;94936.97;;;17.68;100.00
8075;BME280;4080;42.676;23.372;2023-05-21T05:53:51;94926.78;;;17.79;100.00
8075;BME280;4080;42.676;23.372;2023-05-21T05:56:18;94940.41;;;18.03;100.00
8075;BME280;4080;42.676;23.372;2023-05-21T05:58:45;94939.94;;;18.18;100.00
8075;BME280;4080;42.676;23.372;2023-05-21T06:01:12;94942.41;;;18.41;100.00
8075;BME280;4080;42.676;23.372;2023-05-21T06:03:38;94940.28;;;18.72;100.00
8075;BME280;4080;42.676;23.372;2023-05-21T06:06:05;94943.72;;;19.11;100.00
8075;BME280;4080;42.676;23.372;2023-05-21T06:08:32;94936.00;;;19.39;100.00
8075;BME280;4080;42.676;23.372;2023-05-21T06:11:02;94939.97;;;19.83;100.00
8075;BME280;4080;42.676;23.372;2023-05-21T06:13:28;94943.06;;;20.27;100.00
8075;BME280;4080;42.676;23.372;2023-05-21T06:15:56;94942.63;;;20.70;100.00
8075;BME280;4080;42.676;23.372;2023-05-21T06:18:22;94940.84;;;21.11;100.00
8075;BME280;4080;42.676;23.372;2023-05-21T06:20:49;94918.06;;;21.41;100.00
8075;BME280;4080;42.676;23.372;2023-05-21T06:23:16;94941.97;;;21.98;100.00
8075;BME280;4080;42.676;23.372;2023-05-21T06:25:43;94943.38;;;22.20;100.00
8075;BME280;4080;42.676;23.372;2023-05-21T06:28:11;94939.59;;;22.37;100.00
8075;BME280;4080;42.676;23.372;2023-05-21T06:30:38;94930.72;;;22.21;100.00
8075;BME280;4080;42.676;23.372;2023-05-21T06:33:05;94878.34;;;21.87;100.00
8075;BME280;4080;42.676;23.372;2023-05-21T06:35:31;94941.63;;;22.12;100.00
8075;BME280;4080;42.676;23.372;2023-05-21T06:38:01;94933.28;;;21.89;100.00
8075;BME280;4080;42.676;23.372;2023-05-21T06:40:27;94933.88;;;21.70;100.00
8075;BME280;4080;42.676;23.372;2023-05-21T06:42:54;94930.69;;;21.53;100.00
8075;BME280;4080;42.676;23.372;2023-05-21T06:45:23;94925.56;;;21.48;100.00
8075;BME280;4080;42.676;23.372;2023-05-21T06:47:50;94921.75;;;21.36;100.00
8075;BME280;4080;42.676;23.372;2023-05-21T06:50:17;94920.19;;;21.35;100.00
8075;BME280;4080;42.676;23.372;2023-05-21T06:52:44;94928.69;;;21.50;100.00
8075;BME280;4080;42.676;23.372;2023-05-21T06:55:11;94924.66;;;21.44;100.00
8075;BME280;4080;42.676;23.372;2023-05-21T06:57:38;94925.22;;;21.49;100.00
8075;BME280;4080;42.676;23.372;2023-05-21T07:00:05;94920.94;;;21.60;100.00
8075;BME280;4080;42.676;23.372;2023-05-21T07:02:34;94921.66;;;21.85;100.00
8075;BME280;4080;42.676;23.372;2023-05-21T07:05:01;94921.59;;;22.10;100.00
8075;BME280;4080;42.676;23.372;2023-05-21T07:07:28;94914.50;;;22.17;100.00
8075;BME280;4080;42.676;23.372;2023-05-21T07:09:54;94919.34;;;22.12;100.00
8075;BME280;4080;42.676;23.372;2023-05-21T07:12:21;94907.13;;;22.14;100.00
8075;BME280;4080;42.676;23.372;2023-05-21T07:14:48;94913.38;;;22.18;100.00
8075;BME280;4080;42.676;23.372;2023-05-21T07:17:14;94909.72;;;21.98;100.00
8075;BME280;4080;42.676;23.372;2023-05-21T07:19:42;94903.53;;;21.82;100.00
8075;BME280;4080;42.676;23.372;2023-05-21T07:22:09;94870.22;;;21.71;100.00
8075;BME280;4080;42.676;23.372;2023-05-21T07:24:37;94906.66;;;21.84;100.00
8075;BME280;4080;42.676;23.372;2023-05-21T07:27:04;94912.81;;;21.85;100.00
8075;BME280;4080;42.676;23.372;2023-05-21T07:29:31;94914.91;;;21.91;100.00
8075;BME280;4080;42.676;23.372;2023-05-21T07:31:58;94918.03;;;21.93;100.00
8075;BME280;4080;42.676;23.372;2023-05-21T07:34:25;94918.91;;;21.97;100.00
8075;BME280;4080;42.676;23.372;2023-05-21T07:36:53;94921.34;;;22.02;100.00
8075;BME280;4080;42.676;23.372;2023-05-21T07:39:20;94925.41;;;22.09;100.00
8075;BME280;4080;42.676;23.372;2023-05-21T07:41:47;94918.06;;;22.21;100.00
8075;BME280;4080;42.676;23.372;2023-05-21T07:44:14;94921.44;;;22.18;100.00
8075;BME280;4080;42.676;23.372;2023-05-21T07:46:40;94924.97;;;21.94;100.00
8075;BME280;4080;42.676;23.372;2023-05-21T07:49:07;94918.97;;;21.85;100.00
8075;BME280;4080;42.676;23.372;2023-05-21T07:51:40;94926.78;;;21.90;100.00
8075;BME280;4080;42.676;23.372;2023-05-21T07:54:08;94922.53;;;21.89;100.00
8075;BME280;4080;42.676;23.372;2023-05-21T07:56:35;94919.19;;;22.20;97.91
8075;BME280;4080;42.676;23.372;2023-05-21T07:59:02;94915.38;;;22.81;97.03
8075;BME280;4080;42.676;23.372;2023-05-21T08:01:28;94932.47;;;23.04;89.39
8075;BME280;4080;42.676;23.372;2023-05-21T08:03:55;94913.91;;;22.99;83.35
8075;BME280;4080;42.676;23.372;2023-05-21T08:06:24;94906.00;;;22.75;79.52
8075;BME280;4080;42.676;23.372;2023-05-21T08:08:51;94905.72;;;22.64;78.51
8075;BME280;4080;42.676;23.372;2023-05-21T08:11:20;94909.16;;;22.33;79.70
8075;BME280;4080;42.676;23.372;2023-05-21T08:13:47;94922.94;;;22.31;80.43
8075;BME280;4080;42.676;23.372;2023-05-21T08:16:14;94914.53;;;22.33;81.60
8075;BME280;4080;42.676;23.372;2023-05-21T08:18:41;94915.41;;;22.37;80.72
8075;BME280;4080;42.676;23.372;2023-05-21T08:21:08;94914.13;;;22.62;82.17
8075;BME280;4080;42.676;23.372;2023-05-21T08:23:34;94915.38;;;22.81;81.05
8075;BME280;4080;42.676;23.372;2023-05-21T08:26:01;94924.47;;;22.92;78.58
8075;BME280;4080;42.676;23.372;2023-05-21T08:28:29;94933.16;;;23.17;77.02
8075;BME280;4080;42.676;23.372;2023-05-21T08:30:56;94907.28;;;23.12;73.66
8075;BME280;4080;42.676;23.372;2023-05-21T08:33:23;94876.59;;;22.66;74.45
8075;BME280;4080;42.676;23.372;2023-05-21T08:35:49;94916.31;;;22.73;76.12
8075;BME280;4080;42.676;23.372;2023-05-21T08:38:16;94887.75;;;22.37;77.01
8075;BME280;4080;42.676;23.372;2023-05-21T08:41:01;94908.50;;;22.52;77.46
8075;BME280;4080;42.676;23.372;2023-05-21T08:43:33;94900.81;;;22.82;78.16
8075;BME280;4080;42.676;23.372;2023-05-21T08:46:03;94909.81;;;23.05;73.93
8075;BME280;4080;42.676;23.372;2023-05-21T08:48:30;94901.13;;;23.12;73.32
8075;BME280;4080;42.676;23.372;2023-05-21T08:50:58;94810.06;;;22.31;72.78
8075;BME280;4080;42.676;23.372;2023-05-21T08:53:25;94902.38;;;22.99;75.70
8075;BME280;4080;42.676;23.372;2023-05-21T08:55:53;94911.94;;;22.96;76.54
8075;BME280;4080;42.676;23.372;2023-05-21T08:58:21;94874.69;;;22.67;75.03
8075;BME280;4080;42.676;23.372;2023-05-21T09:00:49;94898.97;;;23.02;76.15
8075;BME280;4080;42.676;23.372;2023-05-21T09:03:16;94923.91;;;22.99;77.79
8075;BME280;4080;42.676;23.372;2023-05-21T09:05:44;94918.75;;;22.78;77.50
8075;BME280;4080;42.676;23.372;2023-05-21T09:08:14;94915.16;;;22.58;78.85
8075;BME280;4080;42.676;23.372;2023-05-21T09:10:46;94867.19;;;22.13;79.01
8075;BME280;4080;42.676;23.372;2023-05-21T09:13:14;94901.25;;;22.24;79.18
8075;BME280;4080;42.676;23.372;2023-05-21T09:15:41;94914.50;;;22.17;78.48
8075;BME280;4080;42.676;23.372;2023-05-21T09:18:09;94919.63;;;22.22;78.09
8075;BME280;4080;42.676;23.372;2023-05-21T09:20:36;94903.81;;;22.65;79.67
8075;BME280;4080;42.676;23.372;2023-05-21T09:23:05;94895.53;;;23.01;75.78
8075;BME280;4080;42.676;23.372;2023-05-21T09:25:37;94899.50;;;23.07;72.61
8075;BME280;4080;42.676;23.372;2023-05-21T09:28:10;94903.91;;;22.68;73.07
8075;BME280;4080;42.676;23.372;2023-05-21T09:30:43;94900.03;;;22.66;74.39
8075;BME280;4080;42.676;23.372;2023-05-21T09:33:11;94878.16;;;22.36;71.59
8075;BME280;4080;42.676;23.372;2023-05-21T09:35:43;94910.56;;;22.58;72.46
8075;BME280;4080;42.676;23.372;2023-05-21T09:38:11;94906.44;;;22.77;74.39
8075;BME280;4080;42.676;23.372;2023-05-21T09:40:43;94907.72;;;23.14;71.56
8075;BME280;4080;42.676;23.372;2023-05-21T09:43:13;94899.09;;;23.40;71.38
8075;BME280;4080;42.676;23.372;2023-05-21T09:45:49;94895.25;;;23.76;70.27
8075;BME280;4080;42.676;23.372;2023-05-21T09:48:31;94902.41;;;24.07;66.32
8075;BME280;4080;42.676;23.372;2023-05-21T09:51:07;94873.00;;;23.99;62.48
8075;BME280;4080;42.676;23.372;2023-05-21T09:53:34;94885.47;;;24.07;63.61
8075;BME280;4080;42.676;23.372;2023-05-21T09:56:01;94884.44;;;24.15;64.33
8075;BME280;4080;42.676;23.372;2023-05-21T09:58:29;94884.97;;;24.21;64.74
8075;BME280;4080;42.676;23.372;2023-05-21T10:00:56;94877.53;;;24.56;65.36
8075;BME280;4080;42.676;23.372;2023-05-21T10:03:26;94891.72;;;24.76;61.98
8075;BME280;4080;42.676;23.372;2023-05-21T10:05:54;94877.50;;;24.79;57.28
8075;BME280;4080;42.676;23.372;2023-05-21T10:08:25;94894.56;;;24.83;57.76
8075;BME280;4080;42.676;23.372;2023-05-21T10:10:52;94889.44;;;24.78;58.04
8075;BME280;4080;42.676;23.372;2023-05-21T10:13:21;94887.59;;;24.82;57.80
8075;BME280;4080;42.676;23.372;2023-05-21T10:15:56;94873.19;;;24.97;58.38
8075;BME280;4080;42.676;23.372;2023-05-21T10:18:26;94869.91;;;24.62;58.16
8075;BME280;4080;42.676;23.372;2023-05-21T10:20:54;94879.63;;;24.24;58.58
8075;BME280;4080;42.676;23.372;2023-05-21T10:23:22;94867.75;;;24.48;60.24
8075;BME280;4080;42.676;23.372;2023-05-21T10:25:50;94871.88;;;24.88;58.57
8075;BME280;4080;42.676;23.372;2023-05-21T10:28:19;94879.47;;;25.05;58.83
8075;BME280;4080;42.676;23.372;2023-05-21T10:30:46;94876.66;;;24.98;58.76
8075;BME280;4080;42.676;23.372;2023-05-21T10:33:14;94876.97;;;24.47;58.11
8075;BME280;4080;42.676;23.372;2023-05-21T10:35:43;94869.34;;;24.10;60.38
8075;BME280;4080;42.676;23.372;2023-05-21T10:38:12;94863.13;;;24.06;60.82
8075;BME280;4080;42.676;23.372;2023-05-21T10:40:39;94865.28;;;24.39;60.69
8075;BME280;4080;42.676;23.372;2023-05-21T10:45:57;94859.41;;;24.80;59.05
8075;BME280;4080;42.676;23.372;2023-05-21T10:48:37;94856.78;;;24.83;62.24
8075;BME280;4080;42.676;23.372;2023-05-21T10:51:17;94863.84;;;24.91;61.92
8075;BME280;4080;42.676;23.372;2023-05-21T10:54:14;94862.19;;;24.60;61.70
8075;BME280;4080;42.676;23.372;2023-05-21T10:56:53;94854.63;;;24.04;62.93
8075;BME280;4080;42.676;23.372;2023-05-21T10:59:35;94859.13;;;23.58;65.26
8075;BME280;4080;42.676;23.372;2023-05-21T11:02:06;94870.63;;;23.23;66.89
8075;BME280;4080;42.676;23.372;2023-05-21T11:04:34;94857.66;;;22.94;67.49
8075;BME280;4080;42.676;23.372;2023-05-21T11:07:06;94852.47;;;22.70;68.86
8075;BME280;4080;42.676;23.372;2023-05-21T11:09:33;94863.84;;;22.47;69.11
8075;BME280;4080;42.676;23.372;2023-05-21T11:11:59;94858.03;;;22.45;69.48
8075;BME280;4080;42.676;23.372;2023-05-21T11:14:33;94844.31;;;22.50;69.03
8075;BME280;4080;42.676;23.372;2023-05-21T11:17:10;94837.22;;;22.74;68.76
8075;BME280;4080;42.676;23.372;2023-05-21T11:19:39;94838.09;;;23.29;67.44
8075;BME280;4080;42.676;23.372;2023-05-21T11:22:07;94841.38;;;23.57;66.95
8075;BME280;4080;42.676;23.372;2023-05-21T11:24:39;94804.66;;;23.30;65.08
8075;BME280;4080;42.676;23.372;2023-05-21T11:27:06;94837.09;;;23.37;65.14
8075;BME280;4080;42.676;23.372;2023-05-21T11:29:44;94836.63;;;23.15;65.50
8075;BME280;4080;42.676;23.372;2023-05-21T11:32:15;94834.44;;;22.86;65.28
8075;BME280;4080;42.676;23.372;2023-05-21T11:34:46;94835.66;;;22.41;67.04
8075;BME280;4080;42.676;23.372;2023-05-21T11:37:37;94829.91;;;22.11;68.79
8075;BME280;4080;42.676;23.372;2023-05-21T11:40:24;94835.91;;;22.05;69.91
8075;BME280;4080;42.676;23.372;2023-05-21T11:42:53;94835.31;;;21.99;69.29
8075;BME280;4080;42.676;23.372;2023-05-21T11:45:21;94812.69;;;21.84;69.79
8075;BME280;4080;42.676;23.372;2023-05-21T11:47:49;94836.53;;;22.01;70.87
8075;BME280;4080;42.676;23.372;2023-05-21T11:50:17;94828.47;;;22.01;70.22
8075;BME280;4080;42.676;23.372;2023-05-21T11:52:44;94823.78;;;21.98;70.25
8075;BME280;4080;42.676;23.372;2023-05-21T11:55:11;94819.81;;;21.92;69.94
8075;BME280;4080;42.676;23.372;2023-05-21T11:57:41;94808.00;;;21.81;70.01
8075;BME280;4080;42.676;23.372;2023-05-21T12:00:13;94830.16;;;21.78;70.70
8075;BME280;4080;42.676;23.372;2023-05-21T12:02:44;94823.63;;;21.63;72.14
8075;BME280;4080;42.676;23.372;2023-05-21T12:05:13;94821.53;;;21.57;72.89
8075;BME280;4080;42.676;23.372;2023-05-21T12:07:39;94823.69;;;21.51;74.84
8075;BME280;4080;42.676;23.372;2023-05-21T12:10:07;94817.09;;;21.49;75.65
8075;BME280;4080;42.676;23.372;2023-05-21T12:12:34;94800.34;;;21.39;77.10
8075;BME280;4080;42.676;23.372;2023-05-21T12:15:01;94772.34;;;21.13;79.56
8075;BME280;4080;42.676;23.372;2023-05-21T12:17:29;94809.06;;;21.36;78.82
8075;BME280;4080;42.676;23.372;2023-05-21T12:19:57;94814.34;;;21.33;78.31
8075;BME280;4080;42.676;23.372;2023-05-21T12:22:25;94816.06;;;21.13;81.64
8075;BME280;4080;42.676;23.372;2023-05-21T12:24:54;94802.84;;;21.08;81.51
8075;BME280;4080;42.676;23.372;2023-05-21T12:27:22;94805.97;;;21.10;82.61
8075;BME280;4080;42.676;23.372;2023-05-21T12:29:50;94813.91;;;21.06;82.56
8075;BME280;4080;42.676;23.372;2023-05-21T12:32:19;94800.59;;;21.10;79.83
8075;BME280;4080;42.676;23.372;2023-05-21T12:34:47;94809.22;;;21.16;79.39
8075;BME280;4080;42.676;23.372;2023-05-21T12:37:15;94801.53;;;21.14;80.25
8075;BME280;4080;42.676;23.372;2023-05-21T12:39:44;94797.16;;;21.09;80.47
8075;BME280;4080;42.676;23.372;2023-05-21T12:42:12;94796.16;;;21.14;80.94
8075;BME280;4080;42.676;23.372;2023-05-21T12:44:42;94791.56;;;21.15;81.26
8075;BME280;4080;42.676;23.372;2023-05-21T12:47:09;94789.31;;;21.17;81.54
8075;BME280;4080;42.676;23.372;2023-05-21T12:49:38;94791.56;;;21.15;80.83
8075;BME280;4080;42.676;23.372;2023-05-21T12:52:08;94787.44;;;21.17;80.38
8075;BME280;4080;42.676;23.372;2023-05-21T12:54:36;94775.94;;;21.04;80.13
8075;BME280;4080;42.676;23.372;2023-05-21T12:57:09;94786.06;;;21.11;79.14
8075;BME280;4080;42.676;23.372;2023-05-21T12:59:52;94803.53;;;21.17;79.48
8075;BME280;4080;42.676;23.372;2023-05-21T13:02:22;94798.50;;;21.16;79.35
8075;BME280;4080;42.676;23.372;2023-05-21T13:04:54;94791.56;;;21.15;79.43
8075;BME280;4080;42.676;23.372;2023-05-21T13:07:21;94788.66;;;21.20;79.34
8075;BME280;4080;42.676;23.372;2023-05-21T13:09:48;94784.50;;;21.22;79.64
8075;BME280;4080;42.676;23.372;2023-05-21T13:12:19;94755.25;;;21.05;79.31
8075;BME280;4080;42.676;23.372;2023-05-21T13:14:47;94792.09;;;21.32;79.63